Time;durP1;ratioP1;P1;durP2;ratioP2;P2;SDS_P1;SDS_P2;PMS_P1;PMS_P2;Temp;Humidity;BMP_temperature;BMP_pressure;BME280_temperature;BME280_humidity;BME280_pressure;Samples;Min_cycle;Max_cycle;Signal;HPM_P1;HPM_P2
2023/04/23 00:00:12;;;;;;;1.50;1.40;;;;;;;19.12;51.61;100383.28;4976750;28;97697;-50
2023/04/23 00:02:38;;;;;;;1.30;1.20;;;;;;;19.13;51.73;100381.97;4978681;28;96695;-50
2023/04/23 00:05:05;;;;;;;1.10;1.10;;;;;;;19.12;51.75;100380.50;4980115;28;96607;-50
2023/04/23 00:07:32;;;;;;;1.50;1.13;;;;;;;19.10;51.80;100383.09;4978439;28;97072;-50
2023/04/23 00:09:59;;;;;;;3.47;1.10;;;;;;;19.12;51.91;100380.50;4975019;28;97231;-50
2023/04/23 00:12:24;;;;;;;1.10;1.00;;;;;;;19.10;51.87;100376.78;4981394;28;97152;-50
2023/04/23 00:14:50;;;;;;;1.57;1.03;;;;;;;19.07;52.06;100375.09;4977701;28;97215;-50
2023/04/23 00:17:16;;;;;;;1.37;1.10;;;;;;;19.06;52.29;100371.56;4977481;28;101102;-50
2023/04/23 00:19:41;;;;;;;1.10;1.00;;;;;;;19.05;52.15;100378.44;4979815;28;97473;-50
2023/04/23 00:22:06;;;;;;;1.07;1.03;;;;;;;19.04;52.28;100373.44;4979861;28;96999;-50
2023/04/23 00:24:34;;;;;;;1.40;1.30;;;;;;;19.03;52.18;100364.31;4978367;28;97411;-50
2023/04/23 00:27:00;;;;;;;2.83;1.50;;;;;;;19.01;52.18;100364.13;4978717;28;97024;-50
2023/04/23 00:29:25;;;;;;;2.40;1.57;;;;;;;19.01;52.25;100364.13;4979111;28;97099;-50
2023/04/23 00:31:51;;;;;;;1.30;1.20;;;;;;;19.00;52.19;100367.47;4978053;28;97347;-50
2023/04/23 00:34:16;;;;;;;1.37;1.27;;;;;;;18.99;52.28;100371.56;4979334;28;97012;-50
2023/04/23 00:36:41;;;;;;;1.20;1.10;;;;;;;18.98;52.48;100370.09;4979288;28;97265;-51
2023/04/23 00:39:07;;;;;;;1.67;1.57;;;;;;;18.95;52.25;100360.03;4977324;28;97474;-50
2023/04/23 00:41:33;;;;;;;1.13;1.03;;;;;;;18.94;52.77;100364.88;4980897;28;97123;-50
2023/04/23 00:43:59;;;;;;;1.60;1.50;;;;;;;18.94;52.93;100362.09;4979324;28;96744;-50
2023/04/23 00:46:25;;;;;;;1.20;1.20;;;;;;;18.94;52.80;100367.66;4976932;28;97236;-50
2023/04/23 00:48:52;;;;;;;1.63;1.53;;;;;;;18.94;52.82;100364.13;4979161;28;97114;-50
2023/04/23 00:51:17;;;;;;;2.03;1.90;;;;;;;18.95;52.89;100365.63;4978568;28;100212;-50
2023/04/23 00:53:43;;;;;;;4.97;2.07;;;;;;;18.94;52.71;100364.13;4977688;28;97107;-50
2023/04/23 00:56:09;;;;;;;1.90;1.80;;;;;;;18.90;52.59;100364.50;4979526;28;97303;-50
2023/04/23 00:58:35;;;;;;;2.70;2.50;;;;;;;18.86;52.96;100369.72;4980664;28;97053;-50
2023/04/23 01:01:03;;;;;;;2.53;2.33;;;;;;;18.84;52.90;100361.16;4978390;28;97051;-51
2023/04/23 01:03:30;;;;;;;2.23;2.13;;;;;;;18.83;52.89;100362.44;4979773;28;97074;-50
2023/04/23 01:05:56;;;;;;;2.80;2.60;;;;;;;18.82;53.03;100360.97;4979780;28;97162;-53
2023/04/23 01:08:23;;;;;;;2.83;2.63;;;;;;;18.83;53.05;100362.44;4980068;28;97226;-51
2023/04/23 01:10:49;;;;;;;2.80;2.60;;;;;;;18.81;52.79;100355.94;4980317;28;96668;-50
2023/04/23 01:13:15;;;;;;;2.60;2.50;;;;;;;18.78;52.91;100357.81;4980323;28;97001;-51
2023/04/23 01:15:44;;;;;;;2.63;2.53;;;;;;;18.79;53.00;100356.50;4980186;28;96971;-50
2023/04/23 01:18:09;;;;;;;2.90;2.70;;;;;;;18.79;52.92;100362.06;4981120;28;97233;-50
2023/04/23 01:20:36;;;;;;;2.67;2.47;;;;;;;18.81;52.84;100356.69;4978650;28;96853;-50
2023/04/23 01:23:03;;;;;;;3.00;2.80;;;;;;;18.82;53.15;100358.19;4980374;28;96979;-51
2023/04/23 01:25:29;;;;;;;2.80;2.60;;;;;;;18.85;53.31;100359.84;4980427;28;97420;-50
2023/04/23 01:27:56;;;;;;;3.50;3.03;;;;;;;18.83;53.15;100365.22;4977047;28;97160;-50
2023/04/23 01:30:22;;;;;;;3.93;2.90;;;;;;;18.81;53.20;100367.09;4977504;28;97093;-50
2023/04/23 01:32:48;;;;;;;3.60;3.30;;;;;;;18.76;53.27;100368.78;4979761;28;96812;-52
2023/04/23 01:35:14;;;;;;;3.10;2.90;;;;;;;18.72;53.20;100365.59;4980554;28;97018;-56
2023/04/23 01:37:41;;;;;;;4.13;3.63;;;;;;;18.67;53.43;100363.75;4979744;28;97275;-51
2023/04/23 01:40:07;;;;;;;3.70;3.50;;;;;;;18.63;53.57;100358.53;4979726;28;97051;-50
2023/04/23 01:42:33;;;;;;;4.03;3.80;;;;;;;18.59;53.42;100363.72;4975413;28;96939;-50
2023/04/23 01:44:58;;;;;;;4.37;4.00;;;;;;;18.56;53.58;100361.31;4974040;28;97715;-50
2023/04/23 01:47:24;;;;;;;4.77;4.27;;;;;;;18.47;53.70;100361.84;4979142;28;97544;-51
2023/04/23 01:49:49;;;;;;;5.17;4.77;;;;;;;18.43;53.73;100367.03;4976664;28;97104;-50
2023/04/23 01:52:15;;;;;;;4.67;4.27;;;;;;;18.38;53.87;100362.34;4978248;28;97068;-50
2023/04/23 01:54:40;;;;;;;5.13;4.30;;;;;;;18.35;53.91;100366.25;4977891;28;97898;-50
2023/04/23 01:57:05;;;;;;;5.63;5.23;;;;;;;18.29;53.97;100366.41;4977458;28;102650;-50
2023/04/23 01:59:31;;;;;;;4.87;4.47;;;;;;;18.26;54.10;100364.00;4977977;28;97089;-50
2023/04/23 02:01:56;;;;;;;5.73;5.30;;;;;;;18.24;54.16;100361.75;4975521;28;97485;-50
2023/04/23 02:04:21;;;;;;;6.30;5.80;;;;;;;18.21;54.30;100378.84;4974824;28;97409;-50
2023/04/23 02:06:49;;;;;;;5.30;4.83;;;;;;;18.16;54.46;100382.53;4975632;28;97414;-49
2023/04/23 02:09:15;;;;;;;5.37;4.87;;;;;;;18.11;54.61;100386.25;4977359;28;97099;-50
2023/04/23 02:11:40;;;;;;;5.40;5.00;;;;;;;18.06;54.47;100384.34;4975852;28;97698;-50
2023/04/23 02:14:06;;;;;;;5.37;4.97;;;;;;;18.03;54.61;100385.44;4977617;28;97245;-50
2023/04/23 02:16:33;;;;;;;6.43;5.63;;;;;;;17.94;54.73;100383.94;4975399;28;97454;-50
2023/04/23 02:18:58;;;;;;;5.90;5.40;;;;;;;17.88;54.60;100389.66;4977529;28;96760;-50
2023/04/23 02:21:26;;;;;;;6.57;5.87;;;;;;;17.80;54.50;100400.00;4978600;28;97109;-50
2023/04/23 02:23:51;;;;;;;7.13;6.43;;;;;;;17.74;54.69;100395.88;4977606;28;97610;-50
2023/04/23 02:26:17;;;;;;;7.47;6.77;;;;;;;17.66;54.78;100420.88;4977725;28;97548;-50
2023/04/23 02:28:43;;;;;;;7.37;6.50;;;;;;;17.67;54.71;100388.97;4976409;28;97249;-50
2023/04/23 02:31:09;;;;;;;7.57;6.50;;;;;;;17.65;54.80;100391.56;4979631;28;97410;-50
2023/04/23 02:33:34;;;;;;;7.20;6.60;;;;;;;17.63;54.78;100401.75;4977473;28;97241;-50
2023/04/23 02:35:59;;;;;;;7.73;7.07;;;;;;;17.58;54.74;100397.81;4977107;28;97023;-50
2023/04/23 02:38:25;;;;;;;8.67;7.73;;;;;;;17.54;54.94;100408.56;4977482;28;97030;-50
2023/04/23 02:40:50;;;;;;;8.03;7.23;;;;;;;17.54;54.85;100403.00;4980695;28;97694;-50
2023/04/23 02:43:17;;;;;;;10.13;8.20;;;;;;;17.45;54.80;100405.50;4981135;28;97572;-50
2023/04/23 02:45:43;;;;;;;9.13;8.23;;;;;;;17.38;54.80;100406.19;4981244;28;96978;-50
2023/04/23 02:48:09;;;;;;;12.70;9.60;;;;;;;17.31;54.83;100402.06;4979459;28;97240;-50
2023/04/23 02:50:34;;;;;;;12.60;9.20;;;;;;;17.23;54.90;100406.84;4979686;28;97374;-50
2023/04/23 02:53:00;;;;;;;10.30;9.10;;;;;;;17.21;54.73;100412.19;4981471;28;97130;-50
2023/04/23 02:55:28;;;;;;;10.20;9.13;;;;;;;17.16;54.84;100413.06;4979830;28;97197;-50
2023/04/23 02:57:53;;;;;;;10.67;9.50;;;;;;;17.08;54.95;100412.28;4978178;28;96840;-50
2023/04/23 03:00:19;;;;;;;11.90;10.10;;;;;;;17.03;54.95;100402.03;4979665;28;96853;-50
2023/04/23 03:02:44;;;;;;;11.13;9.20;;;;;;;16.97;54.96;100413.28;4977484;28;106270;-50
2023/04/23 03:05:10;;;;;;;12.57;10.77;;;;;;;16.92;55.04;100416.94;4979641;28;97213;-50
2023/04/23 03:07:35;;;;;;;11.93;10.47;;;;;;;16.89;55.22;100417.28;4978364;28;96916;-50
2023/04/23 03:10:00;;;;;;;11.80;10.03;;;;;;;16.86;55.21;100416.31;4979379;28;96873;-50
2023/04/23 03:12:26;;;;;;;12.00;10.00;;;;;;;16.88;55.19;100413.03;4979807;28;97108;-50
2023/04/23 03:14:51;;;;;;;17.47;10.30;;;;;;;16.87;55.19;100414.28;4976653;28;98303;-50
2023/04/23 03:17:16;;;;;;;12.33;10.27;;;;;;;16.80;55.29;100420.53;4978200;28;97351;-51
2023/04/23 03:19:42;;;;;;;12.47;10.70;;;;;;;16.75;55.30;100415.84;4978699;28;97480;-49
2023/04/23 03:22:07;;;;;;;11.57;10.07;;;;;;;16.74;55.17;100422.69;4977433;28;102570;-50
2023/04/23 03:24:34;;;;;;;11.40;10.30;;;;;;;16.70;55.24;100425.81;4985288;28;97439;-50
2023/04/23 03:26:59;;;;;;;14.30;10.37;;;;;;;16.67;55.35;100418.53;4981081;28;97363;-50
2023/04/23 03:29:25;;;;;;;12.47;10.40;;;;;;;16.66;55.28;100422.63;4979556;28;96757;-50
2023/04/23 03:31:50;;;;;;;11.63;10.43;;;;;;;16.64;55.17;100427.22;4979818;28;96762;-50
2023/04/23 03:34:15;;;;;;;12.00;10.67;;;;;;;16.62;55.15;100415.91;4978256;28;97195;-50
2023/04/23 03:36:43;;;;;;;11.40;9.97;;;;;;;16.57;55.18;100452.88;4980708;28;97008;-50
2023/04/23 03:39:09;;;;;;;13.90;10.77;;;;;;;16.56;55.24;100418.03;4978347;28;97344;-50
2023/04/23 03:41:35;;;;;;;12.03;9.90;;;;;;;16.52;55.22;100435.06;4979803;28;96980;-50
2023/04/23 03:44:00;;;;;;;12.53;10.70;;;;;;;16.53;55.15;100421.91;4978167;28;97316;-50
2023/04/23 03:46:25;;;;;;;13.03;10.77;;;;;;;16.51;55.05;100433.56;4978658;28;97274;-50
2023/04/23 03:48:51;;;;;;;12.70;10.80;;;;;;;16.47;55.20;100428.31;4977906;28;97392;-49
2023/04/23 03:51:16;;;;;;;13.50;11.20;;;;;;;16.46;55.26;100432.38;4976753;28;104711;-50
2023/04/23 03:53:41;;;;;;;14.67;11.30;;;;;;;16.42;55.33;100440.28;4979741;28;97233;-49
2023/04/23 03:56:07;;;;;;;13.47;11.10;;;;;;;16.38;55.18;100425.25;4980180;28;97444;-50
2023/04/23 03:58:32;;;;;;;12.47;10.47;;;;;;;16.34;55.23;100430.38;4975194;28;97226;-50
2023/04/23 04:00:57;;;;;;;12.50;10.90;;;;;;;16.34;55.22;100436.66;4979944;28;102324;-50
2023/04/23 04:03:23;;;;;;;14.30;11.40;;;;;;;16.32;55.16;100430.16;4976197;28;98279;-50
2023/04/23 04:05:48;;;;;;;14.83;11.77;;;;;;;16.31;55.04;100432.22;4979722;28;97345;-50
2023/04/23 04:08:13;;;;;;;16.30;11.77;;;;;;;16.30;55.07;100436.25;4976342;28;97044;-50
2023/04/23 04:10:39;;;;;;;15.20;11.77;;;;;;;16.28;55.07;100444.38;4977396;28;107695;-50
2023/04/23 04:13:05;;;;;;;14.17;11.37;;;;;;;16.25;55.05;100453.75;4978250;28;97762;-50
2023/04/23 04:15:31;;;;;;;14.43;11.73;;;;;;;16.24;54.99;100452.28;4978180;28;96697;-50
2023/04/23 04:17:57;;;;;;;12.27;11.00;;;;;;;16.23;54.97;100455.56;4979788;28;96993;-49
2023/04/23 04:20:22;;;;;;;14.13;10.87;;;;;;;16.23;54.91;100455.56;4975778;28;97125;-50
2023/04/23 04:22:48;;;;;;;14.27;12.00;;;;;;;16.22;54.92;100462.44;4977645;28;96760;-50
2023/04/23 04:25:13;;;;;;;16.40;11.23;;;;;;;16.21;54.85;100461.69;4976949;28;97043;-51
2023/04/23 04:27:40;;;;;;;15.23;10.93;;;;;;;16.15;54.71;100463.06;4979615;28;97084;-50
2023/04/23 04:30:06;;;;;;;15.40;12.07;;;;;;;16.13;54.67;100465.63;4978045;28;97964;-50
2023/04/23 04:32:32;;;;;;;14.80;11.67;;;;;;;16.11;54.68;100466.19;4976398;28;97393;-50
2023/04/23 04:34:57;;;;;;;14.53;11.80;;;;;;;16.05;54.54;100476.66;4977982;28;97955;-49
2023/04/23 04:37:23;;;;;;;15.70;12.33;;;;;;;16.00;54.57;100474.72;4979681;28;96959;-50
2023/04/23 04:39:48;;;;;;;13.60;11.20;;;;;;;15.98;54.57;100470.97;4979081;28;97235;-50
2023/04/23 04:42:14;;;;;;;14.60;12.37;;;;;;;15.93;54.59;100480.91;4977473;28;97258;-49
2023/04/23 04:44:40;;;;;;;16.33;12.33;;;;;;;15.90;54.71;100481.97;4976896;28;97009;-50
2023/04/23 04:47:08;;;;;;;14.77;12.27;;;;;;;15.90;54.64;100478.47;4979537;28;97176;-50
2023/04/23 04:49:34;;;;;;;15.60;12.23;;;;;;;15.87;54.62;100494.16;4979005;28;96788;-49
2023/04/23 04:52:00;;;;;;;17.70;12.70;;;;;;;15.82;54.58;100492.22;4977205;28;97183;-50
2023/04/23 04:54:25;;;;;;;16.90;13.27;;;;;;;15.81;54.71;100499.06;4979016;28;97256;-50
2023/04/23 04:56:50;;;;;;;15.10;12.40;;;;;;;15.80;54.74;100494.03;4976562;28;97087;-50
2023/04/23 04:59:16;;;;;;;13.80;11.53;;;;;;;15.80;54.64;100491.25;4977829;28;107033;-50
2023/04/23 05:01:42;;;;;;;16.10;12.70;;;;;;;15.81;54.62;100496.28;4976726;28;97083;-50
2023/04/23 05:04:07;;;;;;;15.10;13.10;;;;;;;15.81;54.64;100490.72;4978373;28;97059;-49
2023/04/23 05:06:32;;;;;;;18.63;13.90;;;;;;;15.79;54.66;100500.84;4978681;28;96941;-50
2023/04/23 05:08:58;;;;;;;16.27;13.80;;;;;;;15.79;54.54;100503.63;4977178;28;97391;-50
2023/04/23 05:11:23;;;;;;;16.23;12.30;;;;;;;15.77;54.58;100506.19;4977270;28;97499;-50
2023/04/23 05:13:50;;;;;;;15.40;12.63;;;;;;;15.72;54.58;100505.75;4980568;28;97176;-50
2023/04/23 05:16:15;;;;;;;14.87;12.03;;;;;;;15.69;54.71;100508.84;4981153;28;97343;-50
2023/04/23 05:18:41;;;;;;;13.80;12.07;;;;;;;15.67;54.52;100514.94;4975069;28;97353;-50
2023/04/23 05:21:07;;;;;;;14.37;11.47;;;;;;;15.65;54.54;100516.72;4981071;28;97171;-50
2023/04/23 05:23:33;;;;;;;13.87;11.40;;;;;;;15.64;54.52;100504.13;4982866;28;96701;-50
2023/04/23 05:25:59;;;;;;;18.53;12.30;;;;;;;15.64;54.55;100521.53;4977773;28;97085;-50
2023/04/23 05:28:24;;;;;;;14.27;10.57;;;;;;;15.67;54.56;100516.94;4976578;28;97297;-50
2023/04/23 05:30:50;;;;;;;18.03;12.60;;;;;;;15.62;54.41;100510.22;4977571;28;97233;-50
2023/04/23 05:33:16;;;;;;;15.53;12.63;;;;;;;15.63;54.51;100511.72;4973882;28;97007;-50
2023/04/23 05:35:42;;;;;;;13.57;11.00;;;;;;;15.64;54.34;100506.91;4978047;28;96770;-50
2023/04/23 05:38:08;;;;;;;16.03;12.20;;;;;;;15.63;54.41;100510.97;4975151;28;97287;-50
2023/04/23 05:40:33;;;;;;;14.97;12.10;;;;;;;15.65;54.52;100517.47;4978631;28;97015;-50
2023/04/23 05:42:59;;;;;;;13.47;11.67;;;;;;;15.64;54.43;100515.97;4979730;28;96709;-50
2023/04/23 05:45:25;;;;;;;15.53;12.83;;;;;;;15.68;54.47;100519.19;4974814;28;97472;-50
2023/04/23 05:47:50;;;;;;;14.37;12.57;;;;;;;15.67;54.32;100512.16;4974735;28;97537;-50
2023/04/23 05:50:16;;;;;;;14.10;12.00;;;;;;;15.68;54.57;100521.22;4976321;28;108753;-50
2023/04/23 05:52:41;;;;;;;14.77;12.03;;;;;;;15.69;54.36;100517.91;4975558;28;96724;-50
2023/04/23 05:55:08;;;;;;;14.30;12.70;;;;;;;15.70;54.42;100524.22;4975868;28;97123;-50
2023/04/23 05:57:34;;;;;;;13.00;11.60;;;;;;;15.69;54.37;100528.25;4980190;28;97206;-50
2023/04/23 06:00:00;;;;;;;14.27;12.23;;;;;;;15.66;54.54;100540.44;4980234;28;97286;-50
2023/04/23 06:02:27;;;;;;;16.07;12.70;;;;;;;15.68;54.57;100533.03;4979749;28;97092;-50
2023/04/23 06:04:52;;;;;;;15.70;12.90;;;;;;;15.70;54.57;100527.72;4976726;28;97363;-50
2023/04/23 06:07:18;;;;;;;14.63;12.40;;;;;;;15.71;54.42;100531.25;4978027;28;106421;-51
2023/04/23 06:09:43;;;;;;;15.60;13.60;;;;;;;15.72;54.61;100532.75;4976087;28;96741;-50
2023/04/23 06:12:10;;;;;;;14.30;12.07;;;;;;;15.73;54.64;100534.97;4976593;28;97174;-50
2023/04/23 06:14:35;;;;;;;15.33;12.80;;;;;;;15.74;54.54;100544.06;4979197;28;97051;-50
2023/04/23 06:17:00;;;;;;;14.87;12.03;;;;;;;15.70;54.56;100543.63;4979251;28;97107;-49
2023/04/23 06:19:26;;;;;;;15.00;12.90;;;;;;;15.66;54.49;100543.19;4977666;28;102455;-49
2023/04/23 06:21:52;;;;;;;14.60;12.00;;;;;;;15.64;54.66;100537.41;4979590;28;97195;-50
2023/04/23 06:24:18;;;;;;;15.80;13.00;;;;;;;15.61;54.60;100535.72;4982061;28;97151;-49
2023/04/23 06:26:43;;;;;;;17.90;14.10;;;;;;;15.61;54.74;100541.25;4981170;28;96765;-50
2023/04/23 06:29:08;;;;;;;15.03;13.27;;;;;;;15.60;54.73;100534.97;4981098;28;97193;-49
2023/04/23 06:31:34;;;;;;;14.17;12.40;;;;;;;15.60;54.75;100548.06;4979317;28;97403;-50
2023/04/23 06:34:00;;;;;;;18.03;13.37;;;;;;;15.56;54.69;100536.53;4980327;28;97431;-50
2023/04/23 06:36:25;;;;;;;17.30;14.03;;;;;;;15.59;54.78;100541.78;4981020;28;98237;-50
2023/04/23 06:38:50;;;;;;;14.50;11.30;;;;;;;15.59;54.78;100525.16;4981616;28;97240;-50
2023/04/23 06:41:16;;;;;;;16.30;12.67;;;;;;;15.65;54.83;100533.38;4977583;28;96866;-50
2023/04/23 06:43:41;;;;;;;19.50;12.40;;;;;;;15.70;54.62;100530.50;4980203;28;97333;-50
2023/04/23 06:46:06;;;;;;;14.60;11.53;;;;;;;15.77;54.65;100532.63;4977412;28;109785;-50
2023/04/23 06:48:32;;;;;;;13.20;11.53;;;;;;;15.87;54.63;100530.22;4981175;28;97712;-50
2023/04/23 06:50:58;;;;;;;18.40;11.93;;;;;;;15.94;54.44;100526.06;4980989;28;97594;-50
2023/04/23 06:53:23;;;;;;;14.27;11.70;;;;;;;16.03;54.47;100523.59;4980031;28;97126;-50
2023/04/23 06:55:50;;;;;;;14.57;12.20;;;;;;;16.12;54.33;100520.38;4979073;28;97151;-50
2023/04/23 06:58:18;;;;;;;15.30;11.73;;;;;;;16.20;54.25;100520.50;4978523;28;97083;-50
2023/04/23 07:00:44;;;;;;;15.70;12.50;;;;;;;16.23;54.23;100517.41;4979175;28;96874;-50
2023/04/23 07:03:10;;;;;;;13.40;11.97;;;;;;;16.30;54.10;100521.56;4979141;28;97056;-50
2023/04/23 07:05:35;;;;;;;17.43;12.80;;;;;;;16.33;54.07;100526.06;4977131;28;97220;-50
2023/04/23 07:08:00;;;;;;;14.70;12.23;;;;;;;16.32;54.03;100524.56;4977937;28;96751;-50
2023/04/23 07:10:26;;;;;;;16.07;13.30;;;;;;;16.34;54.03;100522.72;4976863;28;97175;-49
2023/04/23 07:12:51;;;;;;;13.87;11.33;;;;;;;16.38;53.94;100523.16;4978461;28;96996;-50
2023/04/23 07:15:16;;;;;;;13.83;12.20;;;;;;;16.41;53.87;100524.88;4982291;28;102416;-50
2023/04/23 07:17:42;;;;;;;14.67;12.67;;;;;;;16.43;53.68;100516.75;4975046;28;97757;-50
2023/04/23 07:20:08;;;;;;;14.83;11.73;;;;;;;16.48;53.62;100527.00;4979774;28;96893;-50
2023/04/23 07:22:33;;;;;;;13.90;10.73;;;;;;;16.60;53.65;100526.81;4981575;28;96861;-50
2023/04/23 07:24:59;;;;;;;13.37;11.23;;;;;;;16.69;53.33;100526.34;4980364;28;97153;-50
2023/04/23 07:27:25;;;;;;;12.60;10.40;;;;;;;16.75;53.03;100518.66;4979294;28;97564;-50
2023/04/23 07:29:50;;;;;;;13.57;10.70;;;;;;;16.79;53.07;100521.84;4978104;28;97228;-50
2023/04/23 07:32:16;;;;;;;14.00;11.77;;;;;;;16.86;52.93;100518.41;4979955;28;96930;-50
2023/04/23 07:34:41;;;;;;;14.43;10.97;;;;;;;16.92;52.71;100521.81;4980164;28;97351;-50
2023/04/23 07:37:07;;;;;;;18.43;10.97;;;;;;;16.96;52.61;100516.66;4977526;28;96703;-50
2023/04/23 07:39:32;;;;;;;14.60;11.10;;;;;;;16.99;52.43;100521.13;4979582;28;97190;-50
2023/04/23 07:41:58;;;;;;;15.67;11.90;;;;;;;17.00;52.44;100519.84;4980514;28;97111;-53
2023/04/23 07:44:24;;;;;;;17.70;11.90;;;;;;;17.08;52.38;100513.06;4978891;28;97871;-50
2023/04/23 07:46:50;;;;;;;14.60;12.10;;;;;;;17.16;52.47;100510.38;4980328;28;97413;-51
2023/04/23 07:49:15;;;;;;;12.97;10.93;;;;;;;17.24;52.31;100497.28;4981388;28;97601;-50
2023/04/23 07:51:41;;;;;;;12.60;10.93;;;;;;;17.36;51.93;100504.09;4976151;28;97494;-50
2023/04/23 07:54:07;;;;;;;12.97;10.90;;;;;;;17.57;52.06;100502.06;4979025;28;97426;-50
2023/04/23 07:56:33;;;;;;;12.30;10.53;;;;;;;17.73;51.75;100503.69;4977182;28;97614;-49
2023/04/23 07:58:59;;;;;;;13.73;11.50;;;;;;;17.82;51.59;100508.72;4976828;28;97271;-50
2023/04/23 08:01:25;;;;;;;11.90;10.50;;;;;;;17.90;51.45;100506.00;4977399;28;96972;-50
2023/04/23 08:03:50;;;;;;;11.90;10.07;;;;;;;17.97;51.09;100505.31;4977932;28;98110;-49
2023/04/23 08:06:17;;;;;;;10.90;9.67;;;;;;;17.95;51.05;100500.28;4981238;28;97370;-50
2023/04/23 08:08:42;;;;;;;9.37;8.37;;;;;;;18.14;50.81;100502.06;4977241;28;96632;-50
2023/04/23 08:11:07;;;;;;;10.10;9.10;;;;;;;18.23;50.42;100493.97;4979765;28;97362;-50
2023/04/23 08:13:33;;;;;;;10.60;8.70;;;;;;;18.20;50.37;100497.81;4977650;28;97362;-50
2023/04/23 08:15:58;;;;;;;11.23;8.70;;;;;;;18.33;50.33;100485.81;4980653;28;96934;-50
2023/04/23 08:18:24;;;;;;;10.67;9.30;;;;;;;18.47;49.90;100484.44;4981511;28;96787;-50
2023/04/23 08:20:49;;;;;;;8.50;7.60;;;;;;;18.62;49.81;100485.25;4980162;28;97554;-49
2023/04/23 08:23:14;;;;;;;8.33;7.43;;;;;;;18.74;49.21;100488.41;4975669;28;97184;-50
2023/04/23 08:25:40;;;;;;;9.27;8.27;;;;;;;18.80;48.80;100489.00;4978994;28;97306;-50
2023/04/23 08:28:06;;;;;;;9.93;8.93;;;;;;;18.84;49.00;100480.28;4977435;28;97481;-50
2023/04/23 08:30:31;;;;;;;8.80;7.90;;;;;;;18.91;48.70;100476.75;4972312;28;96990;-50
2023/04/23 08:32:57;;;;;;;8.90;8.00;;;;;;;19.01;48.34;100488.84;4979957;28;98615;-50
2023/04/23 08:35:22;;;;;;;9.60;8.27;;;;;;;19.03;48.39;100489.03;4976527;28;97279;-51
2023/04/23 08:37:48;;;;;;;9.20;7.73;;;;;;;19.17;48.45;100485.53;4979012;28;97263;-50
2023/04/23 08:40:13;;;;;;;10.67;8.63;;;;;;;19.32;48.14;100484.81;4978962;28;97681;-50
2023/04/23 08:42:39;;;;;;;8.57;7.70;;;;;;;19.41;47.90;100475.91;4978917;28;96733;-50
2023/04/23 08:45:05;;;;;;;8.70;7.90;;;;;;;19.50;47.49;100477.41;4979085;28;97784;-50
2023/04/23 08:47:31;;;;;;;10.50;7.97;;;;;;;19.43;47.28;100474.06;4977805;28;96796;-50
2023/04/23 08:49:58;;;;;;;8.20;7.40;;;;;;;19.50;47.26;100477.41;4977613;28;96810;-50
2023/04/23 08:52:28;;;;;;;8.27;7.43;;;;;;;19.66;47.01;100478.88;4977817;28;97046;-51
2023/04/23 08:54:58;;;;;;;6.90;6.23;;;;;;;19.74;46.55;100488.00;4976819;28;97112;-50
2023/04/23 08:57:25;;;;;;;6.40;5.60;;;;;;;19.79;46.22;100482.19;4976349;28;97192;-51
2023/04/23 08:59:51;;;;;;;8.00;6.90;;;;;;;19.92;46.39;100486.84;4978051;28;96875;-50
2023/04/23 09:02:17;;;;;;;7.23;6.53;;;;;;;20.07;46.38;100481.22;4981246;28;97203;-50
2023/04/23 09:04:44;;;;;;;9.43;7.13;;;;;;;20.23;45.89;100476.34;4979348;28;97327;-50
2023/04/23 09:07:11;;;;;;;8.83;7.67;;;;;;;20.33;45.68;100478.00;4974956;28;96788;-50
2023/04/23 09:09:38;;;;;;;8.10;7.30;;;;;;;20.39;45.42;100472.94;4978080;28;97439;-50
2023/04/23 09:12:05;;;;;;;6.97;6.27;;;;;;;20.42;45.18;100473.88;4978652;28;98723;-50
2023/04/23 09:14:31;;;;;;;7.00;5.83;;;;;;;20.52;44.79;100467.13;4980226;28;97017;-50
2023/04/23 09:16:57;;;;;;;7.60;5.77;;;;;;;20.67;44.82;100463.50;4976219;28;97179;-50
2023/04/23 09:19:26;;;;;;;6.03;5.43;;;;;;;20.82;44.53;100452.97;4978158;28;97729;-50
2023/04/23 09:21:52;;;;;;;7.57;6.73;;;;;;;20.92;44.50;100455.91;4975571;28;97304;-50
2023/04/23 09:24:17;;;;;;;7.63;6.00;;;;;;;20.97;44.23;100452.13;4976679;28;97069;-52
2023/04/23 09:26:45;;;;;;;6.80;6.20;;;;;;;21.02;44.04;100458.78;4978803;28;96941;-51
2023/04/23 09:29:22;;;;;;;7.00;6.07;;;;;;;21.06;42.88;100459.91;4978744;28;96804;-50
2023/04/23 09:31:50;;;;;;;6.53;5.37;;;;;;;21.17;43.85;100447.53;4979277;28;97417;-50
2023/04/23 09:34:17;;;;;;;5.23;4.80;;;;;;;21.21;43.41;100447.88;4976685;28;97794;-50
2023/04/23 09:36:44;;;;;;;7.07;6.13;;;;;;;21.25;43.67;100451.75;4977220;28;96703;-50
2023/04/23 09:39:14;;;;;;;6.53;5.93;;;;;;;21.31;43.16;100451.53;4978291;28;97086;-50
2023/04/23 09:41:40;;;;;;;6.43;5.30;;;;;;;21.34;43.63;100447.59;4978211;28;97377;-50
2023/04/23 09:44:07;;;;;;;6.73;6.00;;;;;;;21.48;43.68;100438.31;4977923;28;97560;-50
2023/04/23 09:46:34;;;;;;;6.10;5.60;;;;;;;21.54;43.44;100440.88;4975102;28;97325;-50
2023/04/23 09:49:01;;;;;;;6.70;6.10;;;;;;;21.57;43.20;100443.28;4974397;28;97486;-50
2023/04/23 09:51:28;;;;;;;6.37;5.77;;;;;;;21.61;43.16;100440.81;4975283;28;98617;-50
2023/04/23 09:53:54;;;;;;;7.97;6.40;;;;;;;21.62;43.18;100436.66;4978269;28;97256;-50
2023/04/23 09:56:20;;;;;;;7.40;6.27;;;;;;;21.61;43.45;100429.59;4978469;28;97435;-50
2023/04/23 09:58:46;;;;;;;11.50;6.70;;;;;;;21.62;43.23;100431.06;4976814;28;97117;-50
2023/04/23 10:01:14;;;;;;;7.97;7.17;;;;;;;21.62;43.22;100424.75;4977914;28;98607;-50
2023/04/23 10:03:42;;;;;;;6.77;6.10;;;;;;;21.61;42.91;100429.59;4976650;28;97214;-50
2023/04/23 10:06:12;;;;;;;6.80;6.10;;;;;;;21.63;42.48;100429.78;4976845;28;97050;-50
2023/04/23 10:08:38;;;;;;;6.27;5.73;;;;;;;21.70;43.09;100431.00;4977148;28;96904;-49
2023/04/23 10:11:04;;;;;;;8.10;6.20;;;;;;;21.70;42.62;100422.59;4976482;28;96714;-50
2023/04/23 10:13:30;;;;;;;6.47;5.73;;;;;;;21.75;42.44;100423.69;4977039;28;96794;-50
2023/04/23 10:15:56;;;;;;;4.60;4.30;;;;;;;21.84;42.41;100411.84;4975811;28;97114;-50
2023/04/23 10:18:21;;;;;;;4.77;4.37;;;;;;;21.88;42.06;100424.13;4977160;28;96910;-50
2023/04/23 10:20:49;;;;;;;4.60;4.10;;;;;;;21.92;41.71;100418.09;4975875;28;97413;-50
2023/04/23 10:23:18;;;;;;;5.40;4.90;;;;;;;21.88;42.02;100406.56;4980724;28;99308;-49
2023/04/23 10:25:46;;;;;;;3.47;3.27;;;;;;;22.00;41.91;100402.69;4974366;28;97937;-50
2023/04/23 10:28:16;;;;;;;3.70;3.40;;;;;;;22.08;41.58;100414.53;4980505;28;96779;-50
2023/04/23 10:30:43;;;;;;;3.93;3.63;;;;;;;22.12;41.37;100409.28;4977260;28;97841;-50
2023/04/23 10:33:11;;;;;;;4.27;3.90;;;;;;;22.20;41.47;100409.91;4979049;28;97130;-50
2023/04/23 10:35:37;;;;;;;4.87;4.03;;;;;;;22.24;41.30;100406.69;4974924;28;97180;-49
2023/04/23 10:38:03;;;;;;;3.90;3.57;;;;;;;22.29;41.43;100417.66;4975962;28;96884;-50
2023/04/23 10:40:30;;;;;;;3.77;3.47;;;;;;;22.37;41.35;100404.28;4977657;28;97612;-50
2023/04/23 10:42:56;;;;;;;3.50;3.20;;;;;;;22.51;41.26;100403.91;4976137;28;97197;-50
2023/04/23 10:45:21;;;;;;;4.07;3.67;;;;;;;22.51;40.62;100403.91;4975533;28;97057;-49
2023/04/23 10:47:47;;;;;;;5.23;3.60;;;;;;;22.47;40.66;100395.19;4975370;28;97326;-50
2023/04/23 10:50:21;;;;;;;4.50;4.10;;;;;;;22.59;39.73;100393.31;4976768;28;97437;-50
2023/04/23 10:52:50;;;;;;;4.77;4.23;;;;;;;22.71;40.63;100381.03;4974693;28;97992;-50
2023/04/23 10:55:21;;;;;;;3.90;3.50;;;;;;;22.90;39.81;100378.28;4976368;28;97252;-54
2023/04/23 10:58:04;;;;;;;4.57;3.20;;;;;;;23.06;39.44;100385.13;4977495;28;96910;-50
2023/04/23 11:00:44;;;;;;;3.50;3.20;;;;;;;23.31;39.19;100375.72;4975550;28;97388;-50
2023/04/23 11:03:29;;;;;;;3.83;3.53;;;;;;;23.42;37.47;100384.34;4980377;28;97132;-50
2023/04/23 11:05:55;;;;;;;4.00;3.70;;;;;;;23.39;39.49;100385.53;4981014;28;97132;-50
2023/04/23 11:08:20;;;;;;;3.63;3.33;;;;;;;23.51;39.50;100377.25;4976379;28;97354;-50
2023/04/23 11:10:58;;;;;;;3.90;3.50;;;;;;;23.62;38.72;100377.44;4977262;28;97482;-50